sensor_id;sensor_type;location;lat;lon;timestamp;temperature;humidity
24226;DHT22;51462;51.422;5.514;2022-12-18T00:02:14;-3.20;99.90
24226;DHT22;51462;51.422;5.514;2022-12-18T00:04:40;-3.30;99.90
24226;DHT22;51462;51.422;5.514;2022-12-18T00:07:06;-3.30;99.90
24226;DHT22;51462;51.422;5.514;2022-12-18T00:09:31;-3.40;99.90
24226;DHT22;51462;51.422;5.514;2022-12-18T00:11:57;-3.40;99.90
24226;DHT22;51462;51.422;5.514;2022-12-18T00:14:22;-3.50;99.90
24226;DHT22;51462;51.422;5.514;2022-12-18T00:16:48;-3.60;99.90
24226;DHT22;51462;51.422;5.514;2022-12-18T00:19:14;-3.60;99.90
24226;DHT22;51462;51.422;5.514;2022-12-18T00:21:40;-3.60;99.90
24226;DHT22;51462;51.422;5.514;2022-12-18T00:24:06;-3.50;99.90
24226;DHT22;51462;51.422;5.514;2022-12-18T00:26:34;-3.60;99.90
24226;DHT22;51462;51.422;5.514;2022-12-18T00:29:02;-3.60;99.90
24226;DHT22;51462;51.422;5.514;2022-12-18T00:31:28;-3.70;99.90
24226;DHT22;51462;51.422;5.514;2022-12-18T00:33:54;-3.70;99.90
24226;DHT22;51462;51.422;5.514;2022-12-18T00:36:26;-3.70;99.90
24226;DHT22;51462;51.422;5.514;2022-12-18T00:38:54;-3.70;99.90
24226;DHT22;51462;51.422;5.514;2022-12-18T00:41:20;-3.80;99.90
24226;DHT22;51462;51.422;5.514;2022-12-18T00:44:06;-3.80;99.90
24226;DHT22;51462;51.422;5.514;2022-12-18T00:46:32;-3.90;99.90
24226;DHT22;51462;51.422;5.514;2022-12-18T00:48:58;-3.90;99.90
24226;DHT22;51462;51.422;5.514;2022-12-18T00:51:24;-3.90;99.90
24226;DHT22;51462;51.422;5.514;2022-12-18T00:53:50;-3.90;99.90
24226;DHT22;51462;51.422;5.514;2022-12-18T00:56:16;-3.90;99.90
24226;DHT22;51462;51.422;5.514;2022-12-18T00:58:41;-3.90;99.90
24226;DHT22;51462;51.422;5.514;2022-12-18T01:01:07;-3.90;99.90
24226;DHT22;51462;51.422;5.514;2022-12-18T01:03:34;-3.90;99.90
24226;DHT22;51462;51.422;5.514;2022-12-18T01:05:59;-4.00;99.90
24226;DHT22;51462;51.422;5.514;2022-12-18T01:08:25;-4.10;99.90
24226;DHT22;51462;51.422;5.514;2022-12-18T01:10:50;-4.00;99.90
24226;DHT22;51462;51.422;5.514;2022-12-18T01:13:16;-4.10;99.90
24226;DHT22;51462;51.422;5.514;2022-12-18T01:15:49;-4.10;99.90
24226;DHT22;51462;51.422;5.514;2022-12-18T01:18:14;-4.20;99.90
24226;DHT22;51462;51.422;5.514;2022-12-18T01:20:40;-4.20;99.90
24226;DHT22;51462;51.422;5.514;2022-12-18T01:23:05;-4.20;99.90
24226;DHT22;51462;51.422;5.514;2022-12-18T01:25:31;-4.20;99.90
24226;DHT22;51462;51.422;5.514;2022-12-18T01:27:57;-4.40;99.90
24226;DHT22;51462;51.422;5.514;2022-12-18T01:30:22;-4.50;99.90
24226;DHT22;51462;51.422;5.514;2022-12-18T01:32:48;-4.50;99.90
24226;DHT22;51462;51.422;5.514;2022-12-18T01:35:14;-4.50;99.90
24226;DHT22;51462;51.422;5.514;2022-12-18T01:37:39;-4.40;99.90
24226;DHT22;51462;51.422;5.514;2022-12-18T01:40:05;-4.50;99.90
24226;DHT22;51462;51.422;5.514;2022-12-18T01:42:31;-4.60;99.90
24226;DHT22;51462;51.422;5.514;2022-12-18T01:47:48;-4.40;99.90
24226;DHT22;51462;51.422;5.514;2022-12-18T01:53:12;-4.50;99.90
24226;DHT22;51462;51.422;5.514;2022-12-18T01:55:50;-4.40;99.90
24226;DHT22;51462;51.422;5.514;2022-12-18T01:58:17;-4.50;99.90
24226;DHT22;51462;51.422;5.514;2022-12-18T02:00:43;-4.60;99.90
24226;DHT22;51462;51.422;5.514;2022-12-18T02:03:09;-4.60;99.90
24226;DHT22;51462;51.422;5.514;2022-12-18T02:08:35;-4.60;99.90
24226;DHT22;51462;51.422;5.514;2022-12-18T02:11:07;-4.70;99.90
24226;DHT22;51462;51.422;5.514;2022-12-18T02:16:21;-4.70;99.90
24226;DHT22;51462;51.422;5.514;2022-12-18T02:18:52;-4.80;99.90
24226;DHT22;51462;51.422;5.514;2022-12-18T02:21:50;-4.70;99.90
24226;DHT22;51462;51.422;5.514;2022-12-18T02:27:19;-4.80;99.90
24226;DHT22;51462;51.422;5.514;2022-12-18T02:29:51;-4.70;99.90
24226;DHT22;51462;51.422;5.514;2022-12-18T02:32:21;-4.70;99.90
24226;DHT22;51462;51.422;5.514;2022-12-18T02:34:50;-4.80;99.90
24226;DHT22;51462;51.422;5.514;2022-12-18T02:37:18;-4.90;99.90
24226;DHT22;51462;51.422;5.514;2022-12-18T02:39:45;-4.80;99.90
24226;DHT22;51462;51.422;5.514;2022-12-18T02:42:11;-4.80;99.90
24226;DHT22;51462;51.422;5.514;2022-12-18T02:44:44;-4.90;99.90
24226;DHT22;51462;51.422;5.514;2022-12-18T02:47:13;-4.90;99.90
24226;DHT22;51462;51.422;5.514;2022-12-18T02:50:02;-4.90;99.90
24226;DHT22;51462;51.422;5.514;2022-12-18T02:58:01;-5.10;99.90
24226;DHT22;51462;51.422;5.514;2022-12-18T03:00:37;-4.90;99.90
24226;DHT22;51462;51.422;5.514;2022-12-18T03:06:14;-4.80;99.90
24226;DHT22;51462;51.422;5.514;2022-12-18T03:08:47;-4.70;99.90
24226;DHT22;51462;51.422;5.514;2022-12-18T03:11:14;-4.50;99.90
24226;DHT22;51462;51.422;5.514;2022-12-18T03:13:52;-4.10;99.90
24226;DHT22;51462;51.422;5.514;2022-12-18T03:16:29;-4.40;99.90
24226;DHT22;51462;51.422;5.514;2022-12-18T03:19:01;-4.00;99.90
24226;DHT22;51462;51.422;5.514;2022-12-18T03:21:35;-4.10;99.90
24226;DHT22;51462;51.422;5.514;2022-12-18T03:24:05;-3.90;99.90
24226;DHT22;51462;51.422;5.514;2022-12-18T03:26:33;-4.10;99.90
24226;DHT22;51462;51.422;5.514;2022-12-18T03:29:06;-4.40;99.90
24226;DHT22;51462;51.422;5.514;2022-12-18T03:31:33;-4.60;99.90
24226;DHT22;51462;51.422;5.514;2022-12-18T03:34:04;-4.50;99.90
24226;DHT22;51462;51.422;5.514;2022-12-18T03:36:31;-4.40;99.90
24226;DHT22;51462;51.422;5.514;2022-12-18T03:38:57;-4.50;99.90
24226;DHT22;51462;51.422;5.514;2022-12-18T03:41:43;-4.40;99.90
24226;DHT22;51462;51.422;5.514;2022-12-18T03:44:20;-3.50;99.90
24226;DHT22;51462;51.422;5.514;2022-12-18T03:47:13;-4.00;99.90
24226;DHT22;51462;51.422;5.514;2022-12-18T03:52:37;-4.50;99.90
24226;DHT22;51462;51.422;5.514;2022-12-18T03:55:05;-4.40;99.90
24226;DHT22;51462;51.422;5.514;2022-12-18T03:57:33;-4.10;99.90
24226;DHT22;51462;51.422;5.514;2022-12-18T04:00:06;-3.50;99.90
24226;DHT22;51462;51.422;5.514;2022-12-18T04:02:33;-2.60;99.90
24226;DHT22;51462;51.422;5.514;2022-12-18T04:05:01;-2.40;99.90
24226;DHT22;51462;51.422;5.514;2022-12-18T04:07:28;-2.50;99.90
24226;DHT22;51462;51.422;5.514;2022-12-18T04:09:56;-2.80;99.90
24226;DHT22;51462;51.422;5.514;2022-12-18T04:12:26;-3.10;99.90
24226;DHT22;51462;51.422;5.514;2022-12-18T04:14:52;-2.10;99.90
24226;DHT22;51462;51.422;5.514;2022-12-18T04:17:18;-1.40;99.90
24226;DHT22;51462;51.422;5.514;2022-12-18T04:19:43;-1.60;99.90
24226;DHT22;51462;51.422;5.514;2022-12-18T04:22:10;-2.80;99.90
24226;DHT22;51462;51.422;5.514;2022-12-18T04:24:36;-3.50;99.90
24226;DHT22;51462;51.422;5.514;2022-12-18T04:27:02;-3.60;99.90
24226;DHT22;51462;51.422;5.514;2022-12-18T04:29:27;-3.60;99.90
24226;DHT22;51462;51.422;5.514;2022-12-18T04:31:53;-3.90;99.90
24226;DHT22;51462;51.422;5.514;2022-12-18T04:34:19;-3.20;99.90
24226;DHT22;51462;51.422;5.514;2022-12-18T04:36:45;-2.80;99.90
24226;DHT22;51462;51.422;5.514;2022-12-18T04:39:11;-2.00;99.90
24226;DHT22;51462;51.422;5.514;2022-12-18T04:41:36;-1.90;99.90
24226;DHT22;51462;51.422;5.514;2022-12-18T04:44:02;-2.10;99.90
24226;DHT22;51462;51.422;5.514;2022-12-18T04:46:28;-1.50;99.90
24226;DHT22;51462;51.422;5.514;2022-12-18T04:48:53;-2.10;99.90
24226;DHT22;51462;51.422;5.514;2022-12-18T04:51:19;-2.90;99.90
24226;DHT22;51462;51.422;5.514;2022-12-18T04:53:44;-3.40;99.90
24226;DHT22;51462;51.422;5.514;2022-12-18T04:56:12;-2.50;99.90
24226;DHT22;51462;51.422;5.514;2022-12-18T04:58:40;-1.80;99.90
24226;DHT22;51462;51.422;5.514;2022-12-18T05:01:06;-2.40;99.90
24226;DHT22;51462;51.422;5.514;2022-12-18T05:03:33;-2.00;99.90
24226;DHT22;51462;51.422;5.514;2022-12-18T05:05:59;-3.10;99.90
24226;DHT22;51462;51.422;5.514;2022-12-18T05:08:24;-3.80;99.90
24226;DHT22;51462;51.422;5.514;2022-12-18T05:10:58;-4.10;99.90
24226;DHT22;51462;51.422;5.514;2022-12-18T05:13:24;-4.30;99.90
24226;DHT22;51462;51.422;5.514;2022-12-18T05:15:53;-4.40;99.90
24226;DHT22;51462;51.422;5.514;2022-12-18T05:18:18;-4.60;99.90
24226;DHT22;51462;51.422;5.514;2022-12-18T05:20:44;-4.70;99.90
24226;DHT22;51462;51.422;5.514;2022-12-18T05:23:09;-4.70;99.90
24226;DHT22;51462;51.422;5.514;2022-12-18T05:25:35;-4.90;99.90
24226;DHT22;51462;51.422;5.514;2022-12-18T05:28:01;-4.90;99.90
24226;DHT22;51462;51.422;5.514;2022-12-18T05:30:26;-5.00;99.90
24226;DHT22;51462;51.422;5.514;2022-12-18T05:32:53;-4.90;99.90
24226;DHT22;51462;51.422;5.514;2022-12-18T05:35:18;-4.90;99.90
24226;DHT22;51462;51.422;5.514;2022-12-18T05:37:44;-4.80;99.90
24226;DHT22;51462;51.422;5.514;2022-12-18T05:40:10;-5.00;99.90
24226;DHT22;51462;51.422;5.514;2022-12-18T05:42:36;-5.00;99.90
24226;DHT22;51462;51.422;5.514;2022-12-18T05:45:02;-5.00;99.90
24226;DHT22;51462;51.422;5.514;2022-12-18T05:47:27;-4.90;99.90
24226;DHT22;51462;51.422;5.514;2022-12-18T05:49:54;-5.00;99.90
24226;DHT22;51462;51.422;5.514;2022-12-18T05:52:20;-5.00;99.90
24226;DHT22;51462;51.422;5.514;2022-12-18T05:54:45;-4.90;99.90
24226;DHT22;51462;51.422;5.514;2022-12-18T05:57:11;-4.90;99.90
24226;DHT22;51462;51.422;5.514;2022-12-18T05:59:36;-5.10;99.90
24226;DHT22;51462;51.422;5.514;2022-12-18T06:02:02;-5.10;99.90
24226;DHT22;51462;51.422;5.514;2022-12-18T06:04:28;-4.60;99.90
24226;DHT22;51462;51.422;5.514;2022-12-18T06:06:56;-3.90;99.90
24226;DHT22;51462;51.422;5.514;2022-12-18T06:09:22;-3.10;99.90
24226;DHT22;51462;51.422;5.514;2022-12-18T06:11:48;-3.50;99.90
24226;DHT22;51462;51.422;5.514;2022-12-18T06:14:13;-2.90;99.90
24226;DHT22;51462;51.422;5.514;2022-12-18T06:16:39;-2.40;99.90
24226;DHT22;51462;51.422;5.514;2022-12-18T06:19:05;-3.20;99.90
24226;DHT22;51462;51.422;5.514;2022-12-18T06:21:32;-3.10;99.90
24226;DHT22;51462;51.422;5.514;2022-12-18T06:23:58;-3.70;99.90
24226;DHT22;51462;51.422;5.514;2022-12-18T06:26:24;-3.80;99.90
24226;DHT22;51462;51.422;5.514;2022-12-18T06:28:49;-3.30;99.90
24226;DHT22;51462;51.422;5.514;2022-12-18T06:31:15;-3.60;99.90
24226;DHT22;51462;51.422;5.514;2022-12-18T06:33:41;-3.20;99.90
24226;DHT22;51462;51.422;5.514;2022-12-18T06:36:10;-4.00;99.90
24226;DHT22;51462;51.422;5.514;2022-12-18T06:38:36;-4.20;99.90
24226;DHT22;51462;51.422;5.514;2022-12-18T06:41:09;-4.30;99.90
24226;DHT22;51462;51.422;5.514;2022-12-18T06:43:35;-3.20;99.90
24226;DHT22;51462;51.422;5.514;2022-12-18T06:46:02;-3.00;99.90
24226;DHT22;51462;51.422;5.514;2022-12-18T06:48:28;-3.00;99.90
24226;DHT22;51462;51.422;5.514;2022-12-18T06:50:54;-3.30;99.90
24226;DHT22;51462;51.422;5.514;2022-12-18T06:53:20;-3.00;99.90
24226;DHT22;51462;51.422;5.514;2022-12-18T06:55:45;-2.50;99.90
24226;DHT22;51462;51.422;5.514;2022-12-18T06:58:11;-3.30;99.90
24226;DHT22;51462;51.422;5.514;2022-12-18T07:00:37;-3.90;99.90
24226;DHT22;51462;51.422;5.514;2022-12-18T07:03:02;-3.20;99.90
24226;DHT22;51462;51.422;5.514;2022-12-18T07:05:28;-3.80;99.90
24226;DHT22;51462;51.422;5.514;2022-12-18T07:07:53;-3.90;99.90
24226;DHT22;51462;51.422;5.514;2022-12-18T07:10:19;-3.00;99.90
24226;DHT22;51462;51.422;5.514;2022-12-18T07:12:44;-3.00;99.90
24226;DHT22;51462;51.422;5.514;2022-12-18T07:15:10;-2.30;99.90
24226;DHT22;51462;51.422;5.514;2022-12-18T07:17:36;-1.70;99.90
24226;DHT22;51462;51.422;5.514;2022-12-18T07:20:01;-1.30;99.90
24226;DHT22;51462;51.422;5.514;2022-12-18T07:22:27;-0.40;99.90
24226;DHT22;51462;51.422;5.514;2022-12-18T07:24:53;-0.70;99.90
24226;DHT22;51462;51.422;5.514;2022-12-18T07:27:18;-0.70;99.90
24226;DHT22;51462;51.422;5.514;2022-12-18T07:29:44;-0.20;99.90
24226;DHT22;51462;51.422;5.514;2022-12-18T07:32:10;-0.40;99.90
24226;DHT22;51462;51.422;5.514;2022-12-18T07:34:35;0.30;99.90
24226;DHT22;51462;51.422;5.514;2022-12-18T07:37:01;0.20;99.90
24226;DHT22;51462;51.422;5.514;2022-12-18T07:39:26;0.30;99.90
24226;DHT22;51462;51.422;5.514;2022-12-18T07:41:52;0.60;99.90
24226;DHT22;51462;51.422;5.514;2022-12-18T07:44:36;0.40;99.90
24226;DHT22;51462;51.422;5.514;2022-12-18T07:47:02;0.70;99.90
24226;DHT22;51462;51.422;5.514;2022-12-18T07:49:28;0.90;99.90
24226;DHT22;51462;51.422;5.514;2022-12-18T07:51:55;1.00;99.90
24226;DHT22;51462;51.422;5.514;2022-12-18T07:54:22;1.40;99.90
24226;DHT22;51462;51.422;5.514;2022-12-18T07:56:48;1.50;99.90
24226;DHT22;51462;51.422;5.514;2022-12-18T07:59:13;0.90;99.90
24226;DHT22;51462;51.422;5.514;2022-12-18T08:01:39;1.40;99.90
24226;DHT22;51462;51.422;5.514;2022-12-18T08:04:04;1.30;99.90
24226;DHT22;51462;51.422;5.514;2022-12-18T08:06:30;1.30;99.90
24226;DHT22;51462;51.422;5.514;2022-12-18T08:08:56;1.10;99.90
24226;DHT22;51462;51.422;5.514;2022-12-18T08:11:24;1.00;99.90
24226;DHT22;51462;51.422;5.514;2022-12-18T08:13:50;1.30;99.90
24226;DHT22;51462;51.422;5.514;2022-12-18T08:16:16;1.60;99.90
24226;DHT22;51462;51.422;5.514;2022-12-18T08:18:42;1.20;99.90
24226;DHT22;51462;51.422;5.514;2022-12-18T08:21:12;1.60;99.90
24226;DHT22;51462;51.422;5.514;2022-12-18T08:23:38;1.80;99.90
24226;DHT22;51462;51.422;5.514;2022-12-18T08:26:05;1.80;99.90
24226;DHT22;51462;51.422;5.514;2022-12-18T08:28:30;1.70;99.90
24226;DHT22;51462;51.422;5.514;2022-12-18T08:30:56;1.60;99.90
24226;DHT22;51462;51.422;5.514;2022-12-18T08:33:21;1.80;99.90
24226;DHT22;51462;51.422;5.514;2022-12-18T08:35:47;1.60;99.90
24226;DHT22;51462;51.422;5.514;2022-12-18T08:38:12;1.70;99.90
24226;DHT22;51462;51.422;5.514;2022-12-18T08:40:38;1.50;99.90
24226;DHT22;51462;51.422;5.514;2022-12-18T08:43:04;1.80;99.90
24226;DHT22;51462;51.422;5.514;2022-12-18T08:45:48;2.00;99.90
24226;DHT22;51462;51.422;5.514;2022-12-18T08:48:13;2.10;99.90
24226;DHT22;51462;51.422;5.514;2022-12-18T08:50:40;2.40;99.90
24226;DHT22;51462;51.422;5.514;2022-12-18T08:53:05;2.40;99.90
24226;DHT22;51462;51.422;5.514;2022-12-18T08:55:31;2.30;99.90
24226;DHT22;51462;51.422;5.514;2022-12-18T08:57:57;1.80;99.90
24226;DHT22;51462;51.422;5.514;2022-12-18T09:00:22;0.60;99.90
24226;DHT22;51462;51.422;5.514;2022-12-18T09:02:48;1.10;99.90
24226;DHT22;51462;51.422;5.514;2022-12-18T09:05:13;2.00;99.90
24226;DHT22;51462;51.422;5.514;2022-12-18T09:07:39;2.50;99.90
24226;DHT22;51462;51.422;5.514;2022-12-18T09:10:05;2.10;99.90
24226;DHT22;51462;51.422;5.514;2022-12-18T09:12:31;2.00;99.90
24226;DHT22;51462;51.422;5.514;2022-12-18T09:14:57;2.30;99.90
24226;DHT22;51462;51.422;5.514;2022-12-18T09:17:22;2.30;99.90
24226;DHT22;51462;51.422;5.514;2022-12-18T09:19:48;1.80;99.90
24226;DHT22;51462;51.422;5.514;2022-12-18T09:22:14;2.40;99.90
24226;DHT22;51462;51.422;5.514;2022-12-18T09:24:40;2.50;99.90
24226;DHT22;51462;51.422;5.514;2022-12-18T09:27:05;2.50;99.90
24226;DHT22;51462;51.422;5.514;2022-12-18T09:29:32;1.80;99.90
24226;DHT22;51462;51.422;5.514;2022-12-18T09:31:57;1.80;99.90
24226;DHT22;51462;51.422;5.514;2022-12-18T09:34:23;1.70;99.90
24226;DHT22;51462;51.422;5.514;2022-12-18T09:36:49;1.90;99.90
24226;DHT22;51462;51.422;5.514;2022-12-18T09:39:15;2.00;99.90
24226;DHT22;51462;51.422;5.514;2022-12-18T09:41:55;2.40;99.90
24226;DHT22;51462;51.422;5.514;2022-12-18T09:49:27;2.00;99.90
24226;DHT22;51462;51.422;5.514;2022-12-18T09:52:00;2.10;99.90
24226;DHT22;51462;51.422;5.514;2022-12-18T09:54:40;1.60;99.90
24226;DHT22;51462;51.422;5.514;2022-12-18T09:57:15;1.60;99.90
24226;DHT22;51462;51.422;5.514;2022-12-18T09:59:42;1.70;99.90
24226;DHT22;51462;51.422;5.514;2022-12-18T10:02:18;2.10;99.90
24226;DHT22;51462;51.422;5.514;2022-12-18T10:04:52;2.20;99.90
24226;DHT22;51462;51.422;5.514;2022-12-18T10:07:32;1.90;99.90
24226;DHT22;51462;51.422;5.514;2022-12-18T10:10:40;2.10;99.90
24226;DHT22;51462;51.422;5.514;2022-12-18T10:13:33;2.10;99.90
24226;DHT22;51462;51.422;5.514;2022-12-18T10:16:16;2.10;99.90
24226;DHT22;51462;51.422;5.514;2022-12-18T10:21:36;2.20;99.90
24226;DHT22;51462;51.422;5.514;2022-12-18T10:24:25;2.00;99.90
24226;DHT22;51462;51.422;5.514;2022-12-18T10:26:58;2.40;99.90
24226;DHT22;51462;51.422;5.514;2022-12-18T10:29:25;2.50;99.90
24226;DHT22;51462;51.422;5.514;2022-12-18T10:31:50;2.50;99.90
24226;DHT22;51462;51.422;5.514;2022-12-18T10:34:16;2.80;99.90
24226;DHT22;51462;51.422;5.514;2022-12-18T10:36:42;2.90;99.90
24226;DHT22;51462;51.422;5.514;2022-12-18T10:39:22;2.90;99.90
24226;DHT22;51462;51.422;5.514;2022-12-18T10:41:48;3.00;99.90
24226;DHT22;51462;51.422;5.514;2022-12-18T10:44:22;2.90;99.90
24226;DHT22;51462;51.422;5.514;2022-12-18T10:46:51;3.00;99.90
24226;DHT22;51462;51.422;5.514;2022-12-18T10:49:27;3.00;99.90
24226;DHT22;51462;51.422;5.514;2022-12-18T10:52:21;2.80;99.90
24226;DHT22;51462;51.422;5.514;2022-12-18T10:54:59;2.90;99.90
24226;DHT22;51462;51.422;5.514;2022-12-18T10:57:39;3.00;99.90
24226;DHT22;51462;51.422;5.514;2022-12-18T11:00:27;3.20;99.90
24226;DHT22;51462;51.422;5.514;2022-12-18T11:02:53;3.40;99.90
24226;DHT22;51462;51.422;5.514;2022-12-18T11:07:50;3.40;99.90
24226;DHT22;51462;51.422;5.514;2022-12-18T11:10:18;3.20;99.90
24226;DHT22;51462;51.422;5.514;2022-12-18T11:12:44;3.00;99.90
24226;DHT22;51462;51.422;5.514;2022-12-18T11:15:29;3.20;99.90
24226;DHT22;51462;51.422;5.514;2022-12-18T11:17:55;3.00;99.90
24226;DHT22;51462;51.422;5.514;2022-12-18T11:20:30;3.10;99.90
24226;DHT22;51462;51.422;5.514;2022-12-18T11:23:04;3.10;99.90
24226;DHT22;51462;51.422;5.514;2022-12-18T11:25:32;3.20;99.90
24226;DHT22;51462;51.422;5.514;2022-12-18T11:28:04;2.60;99.90
24226;DHT22;51462;51.422;5.514;2022-12-18T11:30:35;3.10;99.90
24226;DHT22;51462;51.422;5.514;2022-12-18T11:44:13;3.20;99.90
24226;DHT22;51462;51.422;5.514;2022-12-18T11:46:47;3.40;99.90
24226;DHT22;51462;51.422;5.514;2022-12-18T11:49:22;3.10;99.90
24226;DHT22;51462;51.422;5.514;2022-12-18T11:54:39;3.50;99.90
24226;DHT22;51462;51.422;5.514;2022-12-18T11:57:34;3.40;99.90
24226;DHT22;51462;51.422;5.514;2022-12-18T12:11:17;3.50;99.90
24226;DHT22;51462;51.422;5.514;2022-12-18T12:30:32;3.10;99.90
24226;DHT22;51462;51.422;5.514;2022-12-18T12:33:36;3.10;99.90
24226;DHT22;51462;51.422;5.514;2022-12-18T12:39:13;3.30;99.90
24226;DHT22;51462;51.422;5.514;2022-12-18T12:41:41;3.60;99.90
24226;DHT22;51462;51.422;5.514;2022-12-18T12:44:30;3.50;99.90
24226;DHT22;51462;51.422;5.514;2022-12-18T12:47:01;3.50;99.90
24226;DHT22;51462;51.422;5.514;2022-12-18T12:49:31;3.60;99.90
24226;DHT22;51462;51.422;5.514;2022-12-18T12:52:00;3.70;99.90
24226;DHT22;51462;51.422;5.514;2022-12-18T12:54:31;3.60;99.90
24226;DHT22;51462;51.422;5.514;2022-12-18T12:59:47;3.70;99.90
24226;DHT22;51462;51.422;5.514;2022-12-18T13:04:59;3.40;99.90
24226;DHT22;51462;51.422;5.514;2022-12-18T13:15:37;3.60;99.90
24226;DHT22;51462;51.422;5.514;2022-12-18T13:20:50;3.30;99.90
24226;DHT22;51462;51.422;5.514;2022-12-18T13:23:25;3.50;99.90
24226;DHT22;51462;51.422;5.514;2022-12-18T13:36:40;3.60;99.90
24226;DHT22;51462;51.422;5.514;2022-12-18T13:41:53;3.60;99.90
24226;DHT22;51462;51.422;5.514;2022-12-18T13:44:39;3.50;99.90
24226;DHT22;51462;51.422;5.514;2022-12-18T13:49:50;3.30;99.90
24226;DHT22;51462;51.422;5.514;2022-12-18T13:52:24;3.40;99.90
24226;DHT22;51462;51.422;5.514;2022-12-18T13:54:52;3.50;99.90
24226;DHT22;51462;51.422;5.514;2022-12-18T13:57:34;3.30;99.90
24226;DHT22;51462;51.422;5.514;2022-12-18T14:02:48;3.00;99.90
24226;DHT22;51462;51.422;5.514;2022-12-18T14:05:30;3.30;99.90
24226;DHT22;51462;51.422;5.514;2022-12-18T14:08:01;3.40;99.90
24226;DHT22;51462;51.422;5.514;2022-12-18T14:10:31;3.50;99.90
24226;DHT22;51462;51.422;5.514;2022-12-18T14:13:04;3.10;99.90
24226;DHT22;51462;51.422;5.514;2022-12-18T14:18:31;3.60;99.90
24226;DHT22;51462;51.422;5.514;2022-12-18T14:20:59;3.90;99.90
24226;DHT22;51462;51.422;5.514;2022-12-18T14:23:41;3.00;99.90
24226;DHT22;51462;51.422;5.514;2022-12-18T14:28:49;3.60;99.90
24226;DHT22;51462;51.422;5.514;2022-12-18T14:31:24;3.80;99.90
24226;DHT22;51462;51.422;5.514;2022-12-18T14:33:49;3.70;99.90
24226;DHT22;51462;51.422;5.514;2022-12-18T14:36:20;3.60;99.90
24226;DHT22;51462;51.422;5.514;2022-12-18T14:38:51;3.60;99.90
24226;DHT22;51462;51.422;5.514;2022-12-18T14:41:20;3.70;99.90
24226;DHT22;51462;51.422;5.514;2022-12-18T14:43:51;3.60;99.90
24226;DHT22;51462;51.422;5.514;2022-12-18T14:49:03;3.70;99.90
24226;DHT22;51462;51.422;5.514;2022-12-18T14:51:31;3.70;99.90
24226;DHT22;51462;51.422;5.514;2022-12-18T14:53:58;3.50;99.90
24226;DHT22;51462;51.422;5.514;2022-12-18T14:56:32;3.50;99.90
24226;DHT22;51462;51.422;5.514;2022-12-18T14:59:04;3.60;99.90
24226;DHT22;51462;51.422;5.514;2022-12-18T15:01:39;3.50;99.90
24226;DHT22;51462;51.422;5.514;2022-12-18T15:04:32;3.40;99.90
24226;DHT22;51462;51.422;5.514;2022-12-18T15:07:20;3.10;99.90
24226;DHT22;51462;51.422;5.514;2022-12-18T15:20:44;2.80;99.90
24226;DHT22;51462;51.422;5.514;2022-12-18T15:23:27;2.60;99.90
24226;DHT22;51462;51.422;5.514;2022-12-18T15:25:58;3.10;99.90
24226;DHT22;51462;51.422;5.514;2022-12-18T15:28:38;2.90;99.90
24226;DHT22;51462;51.422;5.514;2022-12-18T15:34:28;3.20;99.90
24226;DHT22;51462;51.422;5.514;2022-12-18T15:36:29;3.60;99.90
24226;DHT22;51462;51.422;5.514;2022-12-18T15:38:55;3.90;99.90
24226;DHT22;51462;51.422;5.514;2022-12-18T15:41:22;3.90;99.90
24226;DHT22;51462;51.422;5.514;2022-12-18T15:43:51;4.00;99.90
24226;DHT22;51462;51.422;5.514;2022-12-18T15:51:28;3.10;99.90
24226;DHT22;51462;51.422;5.514;2022-12-18T15:53:56;3.80;99.90
24226;DHT22;51462;51.422;5.514;2022-12-18T15:56:22;3.90;99.90
24226;DHT22;51462;51.422;5.514;2022-12-18T15:59:14;4.00;99.90
24226;DHT22;51462;51.422;5.514;2022-12-18T16:01:41;4.20;99.90
24226;DHT22;51462;51.422;5.514;2022-12-18T16:04:12;4.10;99.90
24226;DHT22;51462;51.422;5.514;2022-12-18T16:06:39;3.60;99.90
24226;DHT22;51462;51.422;5.514;2022-12-18T16:09:05;3.90;99.90
24226;DHT22;51462;51.422;5.514;2022-12-18T16:11:33;4.00;99.90
24226;DHT22;51462;51.422;5.514;2022-12-18T16:14:18;4.20;99.90
24226;DHT22;51462;51.422;5.514;2022-12-18T16:16:46;3.60;99.90
24226;DHT22;51462;51.422;5.514;2022-12-18T16:19:12;3.90;99.90
24226;DHT22;51462;51.422;5.514;2022-12-18T16:21:37;3.80;99.90
24226;DHT22;51462;51.422;5.514;2022-12-18T16:24:03;4.10;99.90
24226;DHT22;51462;51.422;5.514;2022-12-18T16:26:29;4.20;99.90
24226;DHT22;51462;51.422;5.514;2022-12-18T16:28:57;4.30;99.90
24226;DHT22;51462;51.422;5.514;2022-12-18T16:31:23;4.20;99.90
24226;DHT22;51462;51.422;5.514;2022-12-18T16:33:49;4.10;99.90
24226;DHT22;51462;51.422;5.514;2022-12-18T16:36:14;3.80;99.90
24226;DHT22;51462;51.422;5.514;2022-12-18T16:38:41;3.40;99.90
24226;DHT22;51462;51.422;5.514;2022-12-18T16:41:18;3.20;99.90
24226;DHT22;51462;51.422;5.514;2022-12-18T16:43:59;3.00;99.90
24226;DHT22;51462;51.422;5.514;2022-12-18T16:46:25;3.70;99.90
24226;DHT22;51462;51.422;5.514;2022-12-18T16:48:51;4.00;99.90
24226;DHT22;51462;51.422;5.514;2022-12-18T16:51:16;4.00;99.90
24226;DHT22;51462;51.422;5.514;2022-12-18T16:53:42;4.00;99.90
24226;DHT22;51462;51.422;5.514;2022-12-18T16:56:07;3.90;99.90
24226;DHT22;51462;51.422;5.514;2022-12-18T16:58:33;3.90;99.90
24226;DHT22;51462;51.422;5.514;2022-12-18T17:00:59;3.70;99.90
24226;DHT22;51462;51.422;5.514;2022-12-18T17:03:25;4.10;99.90
24226;DHT22;51462;51.422;5.514;2022-12-18T17:05:50;3.90;99.90
24226;DHT22;51462;51.422;5.514;2022-12-18T17:08:16;4.40;99.90
24226;DHT22;51462;51.422;5.514;2022-12-18T17:10:41;3.80;99.90
24226;DHT22;51462;51.422;5.514;2022-12-18T17:13:07;4.30;99.90
24226;DHT22;51462;51.422;5.514;2022-12-18T17:15:36;3.90;99.90
24226;DHT22;51462;51.422;5.514;2022-12-18T17:18:02;4.20;99.90
24226;DHT22;51462;51.422;5.514;2022-12-18T17:20:29;4.00;99.90
24226;DHT22;51462;51.422;5.514;2022-12-18T17:22:55;4.40;99.90
24226;DHT22;51462;51.422;5.514;2022-12-18T17:25:23;4.30;99.90
24226;DHT22;51462;51.422;5.514;2022-12-18T17:27:50;4.40;99.90
24226;DHT22;51462;51.422;5.514;2022-12-18T17:30:15;4.50;99.90
24226;DHT22;51462;51.422;5.514;2022-12-18T17:32:41;4.30;99.90
24226;DHT22;51462;51.422;5.514;2022-12-18T17:35:07;4.40;99.90
24226;DHT22;51462;51.422;5.514;2022-12-18T17:37:32;4.30;99.90
24226;DHT22;51462;51.422;5.514;2022-12-18T17:39:58;4.20;99.90
24226;DHT22;51462;51.422;5.514;2022-12-18T17:42:24;4.50;99.90
24226;DHT22;51462;51.422;5.514;2022-12-18T17:44:50;4.10;99.90
24226;DHT22;51462;51.422;5.514;2022-12-18T17:47:17;4.40;99.90
24226;DHT22;51462;51.422;5.514;2022-12-18T17:49:42;4.50;99.90
24226;DHT22;51462;51.422;5.514;2022-12-18T17:52:08;4.50;99.90
24226;DHT22;51462;51.422;5.514;2022-12-18T17:54:34;4.40;99.90
24226;DHT22;51462;51.422;5.514;2022-12-18T17:57:04;4.30;99.90
24226;DHT22;51462;51.422;5.514;2022-12-18T17:59:29;4.10;99.90
24226;DHT22;51462;51.422;5.514;2022-12-18T18:01:55;4.10;99.90
24226;DHT22;51462;51.422;5.514;2022-12-18T18:04:21;4.30;99.90
24226;DHT22;51462;51.422;5.514;2022-12-18T18:06:46;4.40;99.90
24226;DHT22;51462;51.422;5.514;2022-12-18T18:09:12;4.60;99.90
24226;DHT22;51462;51.422;5.514;2022-12-18T18:11:38;4.60;99.90
24226;DHT22;51462;51.422;5.514;2022-12-18T18:14:22;4.60;99.90
24226;DHT22;51462;51.422;5.514;2022-12-18T18:16:49;4.60;99.90